Time,TemperatureF,DewpointF,PressureIn,WindDirection,WindDirectionDegrees,WindSpeedMPH,WindSpeedGustMPH,Humidity,HourlyPrecipIn,Conditions,Clouds,dailyrainin,SoftwareType,DateUTC
2013-08-17 01:11:00,69.0,29.0,-100.00,South,185,1.0,8.0,22,0.00,,,-99.99,,2013-08-17 08:11:00,
2013-08-17 01:41:00,68.0,29.0,-100.00,SSW,213,3.0,5.0,23,0.00,,,-99.99,,2013-08-17 08:41:00,
2013-08-17 05:41:00,65.0,31.0,-100.00,SW,216,0.0,5.0,28,0.00,,,-99.99,,2013-08-17 12:41:00,
2013-08-17 05:52:00,63.0,32.0,-100.00,North,352,0.0,5.0,31,0.00,,,-99.99,,2013-08-17 12:52:00,
2013-08-17 06:01:00,63.0,32.0,-100.00,North,352,0.0,5.0,31,0.00,,,-99.99,,2013-08-17 13:01:00,
2013-08-17 10:12:00,75.0,35.0,-100.00,East,88,3.0,7.0,23,0.00,,,-99.99,,2013-08-17 17:12:00,
2013-08-17 11:11:00,77.0,34.0,-100.00,ESE,102,4.0,9.0,21,0.00,,,-99.99,,2013-08-17 18:11:00,
2013-08-17 11:21:00,80.0,35.0,-100.00,ENE,62,3.0,8.0,20,0.00,,,-99.99,,2013-08-17 18:21:00,
2013-08-17 11:42:00,80.0,35.0,-100.00,East,88,4.0,11.0,20,0.00,,,-99.99,,2013-08-17 18:42:00,
2013-08-17 12:11:00,82.0,36.0,-100.00,NE,34,4.0,10.0,19,0.00,,,-99.99,,2013-08-17 19:11:00,
2013-08-17 12:21:00,83.0,36.0,-100.00,East,88,4.0,10.0,19,0.00,,,-99.99,,2013-08-17 19:21:00,
2013-08-17 12:41:00,84.0,39.0,-100.00,ESE,107,3.0,10.0,20,0.00,,,-99.99,,2013-08-17 19:41:00,
2013-08-17 13:11:00,86.0,38.0,-100.00,ENE,61,4.0,10.0,18,0.00,,,-99.99,,2013-08-17 20:11:00,
2013-08-17 13:21:00,86.0,39.0,-100.00,East,85,4.0,11.0,19,0.00,,,-99.99,,2013-08-17 20:21:00,
2013-08-17 13:41:00,86.0,39.0,-100.00,ENE,65,5.0,14.0,19,0.00,,,-99.99,,2013-08-17 20:41:00,
2013-08-17 13:51:00,86.0,39.0,-100.00,ENE,65,5.0,14.0,19,0.00,,,-99.99,,2013-08-17 20:51:00,
2013-08-17 14:01:00,86.0,39.0,-100.00,ENE,65,5.0,14.0,19,0.00,,,-99.99,,2013-08-17 21:01:00,
2013-08-17 14:21:00,85.0,37.0,-100.00,West,264,3.0,10.0,18,0.00,,,-99.99,,2013-08-17 21:21:00,
2013-08-17 14:42:00,86.0,38.0,-100.00,North,354,6.0,12.0,18,0.00,,,-99.99,,2013-08-17 21:42:00,
2013-08-17 14:53:00,84.0,37.0,-100.00,NW,323,6.0,15.0,19,0.00,,,-99.99,,2013-08-17 21:53:00,
2013-08-17 15:03:00,84.0,37.0,-100.00,NW,323,6.0,15.0,19,0.00,,,-99.99,,2013-08-17 22:03:00,
2013-08-17 15:22:00,84.0,39.0,-100.00,NW,322,5.0,13.0,20,0.00,,,-99.99,,2013-08-17 22:22:00,
2013-08-17 15:32:00,84.0,39.0,-100.00,NW,322,5.0,13.0,20,0.00,,,-99.99,,2013-08-17 22:32:00,
2013-08-17 15:52:00,86.0,38.0,-100.00,NW,313,8.0,18.0,18,0.00,,,-99.99,,2013-08-17 22:52:00,
2013-08-17 16:02:00,86.0,38.0,-100.00,NW,313,8.0,18.0,18,0.00,,,-99.99,,2013-08-17 23:02:00,
2013-08-17 16:42:00,86.0,36.0,-100.00,WNW,302,8.0,18.0,17,0.00,,,-99.99,,2013-08-17 23:42:00,
2013-08-17 17:11:00,86.0,33.0,-100.00,WNW,284,7.0,19.0,15,0.00,,,-99.99,,2013-08-18 00:11:00,
2013-08-17 17:21:00,84.0,33.0,-100.00,NW,305,9.0,21.0,16,0.00,,,-99.99,,2013-08-18 00:21:00,
2013-08-17 17:41:00,84.0,31.0,-100.00,WNW,302,7.0,15.0,15,0.00,,,-99.99,,2013-08-18 00:41:00,
2013-08-17 17:52:00,84.0,31.0,-100.00,WNW,302,7.0,15.0,15,0.00,,,-99.99,,2013-08-18 00:52:00,
2013-08-17 18:11:00,84.0,33.0,-100.00,WNW,291,6.0,14.0,16,0.00,,,-99.99,,2013-08-18 01:11:00,
2013-08-17 18:21:00,84.0,33.0,-100.00,WNW,291,6.0,14.0,16,0.00,,,-99.99,,2013-08-18 01:21:00,
2013-08-17 18:31:00,84.0,33.0,-100.00,WNW,291,6.0,14.0,16,0.00,,,-99.99,,2013-08-18 01:31:00,
2013-08-17 20:22:00,77.0,38.0,-100.00,North,-999,-999.0,-999.0,25,0.00,,,-99.99,,2013-08-18 03:22:00,
2013-08-17 20:43:00,77.0,38.0,-100.00,West,280,9.0,18.0,25,0.00,,,-99.99,,2013-08-18 03:43:00,
2013-08-17 20:53:00,76.0,39.0,-100.00,West,278,11.0,21.0,26,0.00,,,-99.99,,2013-08-18 03:53:00,
2013-08-17 21:02:00,-999.0,-99.9,-100.00,West,278,11.0,21.0,-999,0.00,,,-99.99,,2013-08-18 04:02:00,
2013-08-17 21:42:00,75.0,37.0,-100.00,West,271,10.0,20.0,25,0.00,,,-99.99,,2013-08-18 04:42:00,
2013-08-17 22:42:00,73.0,38.0,-100.00,West,263,4.0,9.0,28,0.00,,,-99.99,,2013-08-18 05:42:00,
2013-08-17 23:11:00,74.0,37.0,-100.00,WNW,287,4.0,9.0,26,0.00,,,-99.99,,2013-08-18 06:11:00,
2013-08-17 23:21:00,73.0,36.0,-100.00,WSW,250,2.0,8.0,26,0.00,,,-99.99,,2013-08-18 06:21:00,